Time;durP1;ratioP1;P1;durP2;ratioP2;P2;SDS_P1;SDS_P2;PMS_P1;PMS_P2;Temp;Humidity;BMP_temperature;BMP_pressure;BME280_temperature;BME280_humidity;BME280_pressure;Samples;Min_cycle;Max_cycle;Signal;HPM_P1;HPM_P2
2022/11/16 00:01:26;;;;;;;14.63;7.57;;;;;;;11.02;100.00;99513.06;5096166;28;20040;-57
2022/11/16 00:03:55;;;;;;;13.88;7.00;;;;;;;11.20;100.00;99506.53;5095802;28;20523;-57
2022/11/16 00:06:23;;;;;;;16.05;7.43;;;;;;;11.06;100.00;99506.41;5095279;28;20051;-56
2022/11/16 00:09:27;;;;;;;14.13;7.70;;;;;;;11.08;100.00;99504.38;5096214;28;20054;-57
2022/11/16 00:11:41;;;;;;;17.05;7.85;;;;;;;11.16;100.00;99495.47;5094643;28;20048;-57
2022/11/16 00:14:08;;;;;;;15.68;8.10;;;;;;;11.13;100.00;99490.53;5096076;28;20055;-57
2022/11/16 00:16:35;;;;;;;17.52;8.00;;;;;;;11.08;100.00;99496.44;5096218;28;20489;-57
2022/11/16 00:19:04;;;;;;;17.50;8.43;;;;;;;11.10;100.00;99493.59;5095614;28;20036;-56
2022/11/16 00:21:32;;;;;;;16.52;8.32;;;;;;;11.02;100.00;99494.50;5077576;28;20532;-55
2022/11/16 00:23:59;;;;;;;16.35;8.07;;;;;;;11.11;100.00;99485.44;5094445;28;20444;-54
2022/11/16 00:26:26;;;;;;;13.02;7.35;;;;;;;11.01;100.00;99486.75;5094524;28;20044;-54
2022/11/16 00:28:53;;;;;;;16.70;8.00;;;;;;;10.98;100.00;99472.00;5095698;28;20044;-55
2022/11/16 00:31:21;;;;;;;13.60;7.43;;;;;;;11.07;100.00;99472.72;5095539;28;20205;-57
2022/11/16 00:33:48;;;;;;;14.85;8.13;;;;;;;11.00;100.00;99477.94;5095767;28;20044;-57
2022/11/16 00:36:16;;;;;;;19.73;8.55;;;;;;;11.09;100.00;99482.13;5095269;28;20052;-57
2022/11/16 00:38:43;;;;;;;15.98;7.57;;;;;;;11.09;100.00;99479.47;5095768;28;20044;-57
2022/11/16 00:41:12;;;;;;;20.08;8.15;;;;;;;11.06;100.00;99484.34;5095224;28;20048;-56
2022/11/16 00:43:39;;;;;;;19.15;8.57;;;;;;;11.00;100.00;99479.78;5095259;28;20044;-55
2022/11/16 00:46:06;;;;;;;15.55;8.05;;;;;;;11.01;100.00;99476.13;5094963;28;20067;-55
2022/11/16 00:48:32;;;;;;;17.10;8.27;;;;;;;11.01;100.00;99473.50;5094331;28;20067;-55
2022/11/16 00:50:59;;;;;;;18.10;7.70;;;;;;;11.05;100.00;99474.75;5095080;28;20044;-56
2022/11/16 00:53:26;;;;;;;18.98;8.55;;;;;;;11.03;100.00;99479.44;5094931;28;20511;-56
2022/11/16 00:55:53;;;;;;;17.10;9.05;;;;;;;11.04;100.00;99479.25;5095328;28;20052;-56
2022/11/16 00:58:20;;;;;;;17.75;8.23;;;;;;;11.04;100.00;99473.94;5093410;28;20040;-56
2022/11/16 01:00:53;;;;;;;18.88;8.30;;;;;;;11.01;100.00;99469.00;5094909;28;20043;-56
2022/11/16 01:03:22;;;;;;;16.35;9.10;;;;;;;10.98;100.00;99474.66;4970085;28;20382;-58
2022/11/16 01:05:49;;;;;;;20.13;9.43;;;;;;;11.02;100.00;99470.63;5094127;28;20051;-56
2022/11/16 01:08:15;;;;;;;25.30;8.88;;;;;;;11.05;100.00;99464.13;5094877;28;20478;-56
2022/11/16 01:10:42;;;;;;;17.23;8.63;;;;;;;11.03;100.00;99466.97;5093944;28;20481;-56
2022/11/16 01:13:10;;;;;;;18.60;8.95;;;;;;;10.99;100.00;99470.16;5094873;28;20146;-57
2022/11/16 01:15:37;;;;;;;17.30;8.75;;;;;;;11.05;100.00;99461.47;5094610;28;20044;-56
2022/11/16 01:18:04;;;;;;;19.85;8.98;;;;;;;11.07;100.00;99457.63;5094644;28;20040;-56
2022/11/16 01:20:31;;;;;;;18.05;9.77;;;;;;;11.10;100.00;99462.56;5094520;28;20040;-56
2022/11/16 01:22:58;;;;;;;21.20;9.80;;;;;;;11.08;100.00;99461.94;5093466;28;20044;-54
2022/11/16 01:25:24;;;;;;;21.20;9.50;;;;;;;11.11;100.00;99466.88;5093302;28;20052;-57
2022/11/16 01:27:51;;;;;;;19.45;8.77;;;;;;;11.04;100.00;99473.94;5094513;28;20044;-56
2022/11/16 01:30:25;;;;;;;23.73;9.93;;;;;;;11.14;100.00;99470.97;5094714;28;20043;-56
2022/11/16 01:32:58;;;;;;;20.20;9.55;;;;;;;10.97;100.00;99472.19;5094355;28;20505;-56
2022/11/16 01:35:26;;;;;;;18.38;9.73;;;;;;;10.98;100.00;99477.31;5094308;28;20052;-56
2022/11/16 01:37:52;;;;;;;21.42;10.25;;;;;;;11.06;100.00;99481.69;5094213;28;20036;-56
2022/11/16 01:40:19;;;;;;;18.83;9.50;;;;;;;11.06;100.00;99477.22;5093352;28;20055;-56
2022/11/16 01:42:46;;;;;;;21.52;9.57;;;;;;;11.11;100.00;99484.59;5093942;28;20123;-56
2022/11/16 01:45:20;;;;;;;22.58;9.98;;;;;;;11.15;100.00;99472.59;5094132;28;20051;-56
2022/11/16 01:47:52;;;;;;;25.73;10.25;;;;;;;11.19;100.00;99476.53;5094038;28;20056;-56
2022/11/16 01:50:21;;;;;;;21.70;10.25;;;;;;;11.14;100.00;99482.41;5093896;28;20091;-56
2022/11/16 01:52:56;;;;;;;23.00;10.27;;;;;;;11.05;100.00;99467.59;5092915;28;20059;-59
2022/11/16 01:55:27;;;;;;;18.23;9.63;;;;;;;11.06;100.00;99471.06;5093933;28;20413;-56
2022/11/16 01:58:18;;;;;;;17.20;8.88;;;;;;;11.09;100.00;99463.56;5092992;28;20040;-56
2022/11/16 02:00:50;;;;;;;21.05;9.68;;;;;;;11.10;100.00;99464.41;5092729;28;20044;-58
2022/11/16 02:03:28;;;;;;;21.73;9.60;;;;;;;11.06;100.00;99453.34;4982786;28;20040;-56
2022/11/16 02:06:29;;;;;;;18.67;8.95;;;;;;;11.13;100.00;99450.72;5092875;28;20560;-57
2022/11/16 02:10:01;;;;;;;18.98;9.38;;;;;;;11.06;100.00;99441.88;5093953;28;20482;-54
2022/11/16 02:12:54;;;;;;;18.05;9.93;;;;;;;10.97;100.00;99443.84;5093327;28;20040;-55
2022/11/16 02:15:54;;;;;;;18.38;10.43;;;;;;;10.91;100.00;99436.63;5093439;28;20067;-55
2022/11/16 02:18:43;;;;;;;19.67;9.77;;;;;;;10.89;100.00;99446.59;5093594;28;20048;-55
2022/11/16 02:21:23;;;;;;;20.13;10.30;;;;;;;10.96;100.00;99444.84;5093250;28;20044;-55
2022/11/16 02:24:18;;;;;;;18.30;9.77;;;;;;;11.03;100.00;99444.94;5093129;28;20040;-55
2022/11/16 02:27:25;;;;;;;20.63;10.20;;;;;;;10.91;100.00;99453.38;5093305;28;20043;-55
2022/11/16 02:29:54;;;;;;;19.55;9.63;;;;;;;10.99;100.00;99446.28;5093177;28;20040;-55
2022/11/16 02:32:29;;;;;;;19.20;10.20;;;;;;;11.02;100.00;99446.75;5093232;28;20447;-55
2022/11/16 02:35:08;;;;;;;20.35;10.23;;;;;;;10.95;100.00;99440.53;5093366;28;20397;-55
2022/11/16 02:37:40;;;;;;;16.80;9.45;;;;;;;10.94;100.00;99437.06;5093356;28;20040;-55
2022/11/16 02:40:11;;;;;;;17.38;10.43;;;;;;;10.92;100.00;99425.03;5093424;28;20097;-55
2022/11/16 02:42:44;;;;;;;20.00;10.68;;;;;;;10.92;100.00;99414.41;5093186;28;20040;-55
2022/11/16 02:45:18;;;;;;;20.95;10.45;;;;;;;10.87;100.00;99422.09;5093365;28;20040;-55
2022/11/16 02:47:47;;;;;;;19.20;10.32;;;;;;;10.99;100.00;99422.41;5092808;28;20044;-55
2022/11/16 02:50:18;;;;;;;19.48;10.65;;;;;;;11.02;100.00;99419.38;5093256;28;20064;-57
2022/11/16 02:52:45;;;;;;;19.45;10.27;;;;;;;10.95;100.00;99417.50;5092929;28;20051;-56
2022/11/16 02:55:12;;;;;;;18.08;10.40;;;;;;;10.92;100.00;99419.72;5093247;28;20036;-56
2022/11/16 02:57:52;;;;;;;19.95;10.77;;;;;;;10.97;100.00;99405.84;5092895;28;20044;-56
2022/11/16 03:00:22;;;;;;;19.80;9.90;;;;;;;10.97;100.00;99413.81;5093429;28;20113;-57
2022/11/16 03:03:16;;;;;;;18.23;9.85;;;;;;;10.98;100.00;99408.34;4972439;28;20573;-55
2022/11/16 03:05:48;;;;;;;18.27;9.55;;;;;;;10.95;100.00;99404.22;5107851;28;20054;-54
2022/11/16 03:08:25;;;;;;;18.58;10.65;;;;;;;11.00;100.00;99403.66;5091803;28;20048;-56
2022/11/16 03:13:46;;;;;;;18.23;9.32;;;;;;;11.04;100.00;99401.44;5092775;28;20036;-58
2022/11/16 03:16:25;;;;;;;17.58;9.80;;;;;;;11.01;100.00;99393.88;5093066;28;20044;-57
2022/11/16 03:18:57;;;;;;;17.55;9.85;;;;;;;11.01;100.00;99396.53;5092873;28;20037;-55
2022/11/16 03:21:48;;;;;;;18.30;9.73;;;;;;;11.05;100.00;99392.47;5092734;28;20139;-54
2022/11/16 03:24:15;;;;;;;17.45;9.40;;;;;;;11.08;100.00;99408.84;5092610;28;20068;-54
2022/11/16 03:27:12;;;;;;;17.25;9.57;;;;;;;11.11;100.00;99411.13;5092924;28;20070;-54
2022/11/16 03:29:52;;;;;;;16.67;8.85;;;;;;;11.11;100.00;99420.91;5092684;28;20040;-54
2022/11/16 03:32:32;;;;;;;19.80;9.05;;;;;;;11.04;100.00;99422.66;5091684;28;20076;-58
2022/11/16 03:35:14;;;;;;;17.23;8.60;;;;;;;11.11;100.00;99426.22;5096457;28;20047;-54
2022/11/16 03:37:42;;;;;;;19.15;9.63;;;;;;;11.02;100.00;99430.81;5096370;28;20039;-55
2022/11/16 03:40:11;;;;;;;17.15;9.15;;;;;;;11.07;100.00;99438.22;5096356;28;20048;-55
2022/11/16 03:42:41;;;;;;;20.35;9.77;;;;;;;11.02;100.00;99437.97;5096494;28;20101;-54
2022/11/16 03:45:09;;;;;;;19.70;9.80;;;;;;;11.03;100.00;99437.78;5096430;28;20497;-56
2022/11/16 03:47:36;;;;;;;17.38;10.13;;;;;;;11.08;100.00;99440.69;5096279;28;20568;-56
2022/11/16 03:50:03;;;;;;;19.35;10.60;;;;;;;10.98;100.00;99444.66;5096245;28;20044;-55
2022/11/16 03:52:30;;;;;;;20.33;10.68;;;;;;;11.01;100.00;99445.13;5096449;28;20047;-55
2022/11/16 03:54:57;;;;;;;18.67;10.18;;;;;;;11.06;100.00;99444.53;5094901;28;20051;-55
2022/11/16 03:57:25;;;;;;;19.38;10.02;;;;;;;11.11;100.00;99442.97;5096282;28;20520;-57
2022/11/16 03:59:55;;;;;;;17.63;9.85;;;;;;;11.14;100.00;99441.78;5096081;28;20094;-55
2022/11/16 04:02:22;;;;;;;17.52;9.43;;;;;;;11.13;100.00;99440.94;5052828;28;20067;-55
2022/11/16 04:24:35;;;;;;;17.70;10.05;;;;;;;11.16;100.00;99465.47;5095570;28;20040;-56
2022/11/16 04:29:55;;;;;;;20.27;9.77;;;;;;;11.11;100.00;99474.81;5095334;28;20052;-57
2022/11/16 04:37:57;;;;;;;19.85;10.18;;;;;;;11.08;100.00;99463.75;5095318;28;20119;-57
2022/11/16 04:40:29;;;;;;;18.17;9.32;;;;;;;11.11;100.00;99479.28;5095529;28;20051;-56
2022/11/16 04:42:59;;;;;;;21.55;9.70;;;;;;;11.13;100.00;99477.25;5095314;28;20458;-57
2022/11/16 04:48:21;;;;;;;19.02;9.05;;;;;;;11.08;100.00;99469.88;5094951;28;20048;-56
2022/11/16 04:50:51;;;;;;;18.70;9.10;;;;;;;11.09;100.00;99471.50;5093724;28;20484;-57
2022/11/16 04:53:21;;;;;;;21.95;10.43;;;;;;;11.12;100.00;99471.16;5094991;28;20492;-56
2022/11/16 04:55:54;;;;;;;23.77;11.02;;;;;;;11.21;100.00;99471.84;5095445;28;20044;-57
2022/11/16 04:58:25;;;;;;;21.55;11.30;;;;;;;11.17;100.00;99475.06;5093715;28;20044;-56
2022/11/16 05:00:52;;;;;;;21.85;11.50;;;;;;;11.16;100.00;99484.06;5095002;28;20040;-57
2022/11/16 05:03:20;;;;;;;22.05;9.63;;;;;;;11.09;100.00;99487.44;4985712;28;20428;-57
2022/11/16 05:05:48;;;;;;;21.05;9.68;;;;;;;11.13;100.00;99480.75;5076171;28;20044;-57
2022/11/16 05:08:15;;;;;;;19.60;9.00;;;;;;;11.14;100.00;99482.41;5094514;28;20036;-56
2022/11/16 05:10:44;;;;;;;19.17;7.95;;;;;;;11.09;100.00;99487.44;5094482;28;20044;-56
2022/11/16 05:13:10;;;;;;;19.77;7.50;;;;;;;11.12;100.00;99487.06;5093455;28;20402;-57
2022/11/16 05:15:45;;;;;;;15.85;7.50;;;;;;;11.13;100.00;99479.94;5094086;28;20383;-57
2022/11/16 05:18:13;;;;;;;14.82;6.32;;;;;;;11.12;100.00;99489.72;5094723;28;20134;-55
2022/11/16 05:21:10;;;;;;;16.65;5.90;;;;;;;11.10;100.00;99491.75;5094195;28;20044;-56
2022/11/16 05:26:19;;;;;;;11.60;4.80;;;;;;;11.14;100.00;99486.88;5093952;28;20501;-56
2022/11/16 05:28:47;;;;;;;10.43;3.92;;;;;;;11.06;100.00;99494.94;5094593;28;20044;-56
2022/11/16 05:31:14;;;;;;;9.02;3.78;;;;;;;11.04;100.00;99496.97;5092886;28;20123;-56
2022/11/16 05:33:41;;;;;;;11.60;4.03;;;;;;;11.07;100.00;99492.13;5094423;28;20390;-57
2022/11/16 05:36:08;;;;;;;11.73;4.20;;;;;;;11.04;100.00;99495.16;5093989;28;20048;-56
2022/11/16 05:38:35;;;;;;;10.32;3.58;;;;;;;11.03;100.00;99498.00;5094169;28;20044;-57
2022/11/16 05:41:04;;;;;;;12.20;4.13;;;;;;;11.01;100.00;99498.19;5093936;28;20040;-58
2022/11/16 05:43:31;;;;;;;17.25;4.78;;;;;;;11.04;100.00;99500.47;5093895;28;20481;-56
2022/11/16 05:46:06;;;;;;;11.52;4.25;;;;;;;11.04;100.00;99499.63;5093889;28;20044;-55
2022/11/16 05:48:33;;;;;;;11.95;3.80;;;;;;;10.94;100.00;99503.41;5093893;28;20052;-60
2022/11/16 05:51:02;;;;;;;9.45;3.97;;;;;;;10.96;100.00;99505.88;5093924;28;20055;-56
2022/11/16 05:53:32;;;;;;;10.18;4.32;;;;;;;10.98;100.00;99505.69;5093987;28;20048;-55
2022/11/16 05:55:59;;;;;;;11.32;3.60;;;;;;;10.88;100.00;99512.13;5093434;28;20055;-56
2022/11/16 05:58:26;;;;;;;11.20;4.10;;;;;;;10.91;100.00;99510.91;5093856;28;20044;-56
2022/11/16 06:00:53;;;;;;;12.27;4.32;;;;;;;10.82;100.00;99506.72;5093325;28;20380;-56
2022/11/16 06:03:20;;;;;;;9.73;3.78;;;;;;;10.78;100.00;99516.88;5093933;28;20520;-56
2022/11/16 06:05:47;;;;;;;14.57;4.10;;;;;;;10.71;100.00;99514.16;5092817;28;20055;-56
2022/11/16 06:08:15;;;;;;;13.23;4.88;;;;;;;10.67;100.00;99517.34;5093414;28;20047;-56
2022/11/16 06:10:42;;;;;;;12.85;4.05;;;;;;;10.62;100.00;99514.44;5093684;28;20044;-56
2022/11/16 06:13:09;;;;;;;11.65;3.88;;;;;;;10.57;100.00;99517.66;5092447;28;20048;-57
2022/11/16 06:15:37;;;;;;;9.60;4.00;;;;;;;10.57;100.00;99522.97;5092483;28;20051;-56
2022/11/16 06:18:06;;;;;;;13.48;4.40;;;;;;;10.54;100.00;99528.63;5093241;28;20558;-55
2022/11/16 06:20:36;;;;;;;14.60;4.90;;;;;;;10.45;100.00;99524.41;5093686;28;20048;-57
2022/11/16 06:23:02;;;;;;;12.80;4.05;;;;;;;10.47;100.00;99530.34;5093184;28;20505;-59
2022/11/16 06:25:30;;;;;;;11.65;4.43;;;;;;;10.39;100.00;99533.91;5093487;28;20464;-57
2022/11/16 06:27:58;;;;;;;13.60;4.55;;;;;;;10.39;100.00;99536.56;5093155;28;20044;-57
2022/11/16 06:30:26;;;;;;;12.70;4.07;;;;;;;10.29;100.00;99539.44;5093230;28;20036;-57
2022/11/16 06:32:53;;;;;;;13.10;5.25;;;;;;;10.26;100.00;99544.28;5093218;28;20047;-56
2022/11/16 06:35:20;;;;;;;16.90;4.78;;;;;;;10.24;100.00;99541.84;5092918;28;20593;-56
2022/11/16 06:37:47;;;;;;;15.52;4.10;;;;;;;10.16;100.00;99545.38;5093045;28;20052;-57
2022/11/16 06:40:14;;;;;;;16.67;4.55;;;;;;;10.15;100.00;99557.00;5093060;28;20048;-56
2022/11/16 06:42:43;;;;;;;16.90;4.95;;;;;;;10.17;100.00;99560.28;5093070;28;20105;-56
2022/11/16 06:45:12;;;;;;;12.07;4.70;;;;;;;10.15;100.00;99574.69;5092682;28;20516;-56
2022/11/16 06:47:44;;;;;;;12.95;4.60;;;;;;;10.16;100.00;99579.00;5092203;28;20055;-57
2022/11/16 06:50:10;;;;;;;12.73;4.10;;;;;;;10.11;100.00;99579.53;5092893;28;20040;-56
2022/11/16 06:52:37;;;;;;;10.13;3.83;;;;;;;10.08;100.00;99585.22;5092528;28;20139;-56
2022/11/16 06:55:04;;;;;;;15.27;4.13;;;;;;;10.00;100.00;99582.63;5092656;28;20119;-57
2022/11/16 06:57:34;;;;;;;13.88;4.13;;;;;;;9.99;100.00;99583.63;5092591;28;20056;-57
2022/11/16 07:00:03;;;;;;;14.38;4.10;;;;;;;9.98;100.00;99584.63;5092774;28;20040;-57
2022/11/16 07:02:32;;;;;;;14.68;4.65;;;;;;;10.01;100.00;99589.56;5092869;28;20044;-56
2022/11/16 07:04:59;;;;;;;16.73;4.22;;;;;;;10.01;100.00;99592.22;5092604;28;20043;-56
2022/11/16 07:07:29;;;;;;;15.07;3.92;;;;;;;9.95;100.00;99590.25;5092237;28;20051;-56
2022/11/16 07:09:56;;;;;;;17.38;3.92;;;;;;;9.88;100.00;99597.31;5075343;28;20450;-56
2022/11/16 07:12:24;;;;;;;12.85;4.20;;;;;;;9.84;100.00;99596.00;5076591;28;20419;-56
2022/11/16 07:14:53;;;;;;;11.13;3.80;;;;;;;9.87;100.00;99615.00;5076504;28;20044;-56
2022/11/16 07:17:20;;;;;;;12.25;3.60;;;;;;;9.82;100.00;99606.75;5076519;28;20448;-56
2022/11/16 07:19:46;;;;;;;12.82;4.18;;;;;;;9.88;100.00;99607.91;5076526;28;20045;-56
2022/11/16 07:22:13;;;;;;;14.32;4.18;;;;;;;9.86;100.00;99602.78;5076074;28;20440;-56
2022/11/16 07:24:41;;;;;;;20.00;4.13;;;;;;;9.82;100.00;99612.06;5098953;28;20089;-62
2022/11/16 07:27:09;;;;;;;13.25;4.30;;;;;;;9.78;100.00;99616.88;5101581;28;20477;-61
2022/11/16 07:29:40;;;;;;;16.35;4.13;;;;;;;9.82;100.00;99621.84;5117177;28;20050;-62
2022/11/16 07:32:19;;;;;;;14.07;4.07;;;;;;;9.77;100.00;99619.72;5077348;28;20056;-62
2022/11/16 07:35:06;;;;;;;14.77;4.00;;;;;;;9.73;100.00;99624.56;5078932;28;20588;-62
2022/11/16 07:37:34;;;;;;;17.67;4.30;;;;;;;9.65;100.00;99629.88;5076617;28;20104;-62
2022/11/16 07:40:03;;;;;;;13.95;4.50;;;;;;;9.57;100.00;99636.06;5089873;28;20123;-62
2022/11/16 07:42:30;;;;;;;16.80;5.22;;;;;;;9.58;100.00;99639.53;5070736;28;20169;-61
2022/11/16 07:45:06;;;;;;;54.90;17.67;;;;;;;9.65;100.00;99643.13;5102183;28;20057;-61
2022/11/16 07:47:38;;;;;;;65.13;26.67;;;;;;;9.64;100.00;99638.84;5088513;28;20410;-58
2022/11/16 07:50:10;;;;;;;19.42;5.18;;;;;;;9.71;100.00;99644.25;5091168;28;20028;-57
2022/11/16 07:52:37;;;;;;;20.20;5.38;;;;;;;9.68;100.00;99644.59;5087460;28;20668;-57
2022/11/16 07:55:06;;;;;;;17.65;5.00;;;;;;;9.68;100.00;99652.53;5090152;28;20027;-57
2022/11/16 07:57:33;;;;;;;14.60;5.30;;;;;;;9.68;100.00;99653.38;5099431;28;20075;-58
2022/11/16 08:00:05;;;;;;;19.33;4.80;;;;;;;9.70;100.00;99651.38;5071646;28;20037;-58
2022/11/16 08:02:49;;;;;;;19.23;5.00;;;;;;;9.73;100.00;99655.47;5127453;27;20379;-56
2022/11/16 08:05:19;;;;;;;16.80;4.38;;;;;;;9.75;100.00;99659.63;5113652;28;20039;-57
2022/11/16 08:07:47;;;;;;;13.70;4.10;;;;;;;9.69;100.00;99659.50;5094805;28;20170;-57
2022/11/16 08:10:15;;;;;;;18.42;4.00;;;;;;;9.77;100.00;99652.31;5110345;28;20442;-57
2022/11/16 08:12:42;;;;;;;15.05;3.83;;;;;;;9.78;100.00;99658.44;5099372;28;20485;-57
2022/11/16 08:15:10;;;;;;;17.80;3.78;;;;;;;9.84;100.00;99654.25;5102620;28;20637;-57
2022/11/16 08:17:37;;;;;;;18.60;3.80;;;;;;;9.85;100.00;99664.69;5117681;28;20039;-57
2022/11/16 08:20:05;;;;;;;18.27;4.07;;;;;;;9.83;100.00;99673.81;5097893;27;20495;-57
2022/11/16 08:22:33;;;;;;;16.42;4.15;;;;;;;9.85;100.00;99677.94;5112489;28;20043;-57
2022/11/16 08:25:00;;;;;;;15.13;3.88;;;;;;;9.88;100.00;99682.88;5114497;28;20046;-57
2022/11/16 08:27:30;;;;;;;14.95;3.72;;;;;;;9.88;100.00;99679.41;5091745;27;20547;-57
2022/11/16 08:29:57;;;;;;;16.40;3.42;;;;;;;9.84;100.00;99681.59;5108874;28;20516;-57
2022/11/16 08:32:24;;;;;;;20.80;3.95;;;;;;;9.92;99.50;99678.88;5111588;28;20086;-57
2022/11/16 08:34:52;;;;;;;15.10;3.38;;;;;;;9.98;97.12;99685.28;5106718;28;20039;-57
2022/11/16 08:37:20;;;;;;;16.77;2.83;;;;;;;9.96;97.36;99695.25;5120620;27;20455;-57
2022/11/16 08:39:47;;;;;;;17.10;3.45;;;;;;;9.95;95.42;99688.28;5094506;27;20048;-58
2022/11/16 08:42:14;;;;;;;15.57;2.83;;;;;;;10.03;95.34;99687.44;5103881;28;20044;-58
2022/11/16 08:44:45;;;;;;;12.98;2.83;;;;;;;9.95;95.56;99688.28;5095982;27;20047;-58
2022/11/16 08:47:15;;;;;;;15.52;3.10;;;;;;;9.99;97.16;99695.72;5110133;28;20130;-58
2022/11/16 08:49:46;;;;;;;;;;;;;;;10.04;97.19;99702.31;5114153;28;20069;-58
2022/11/16 08:52:15;;;;;;;11.55;2.75;;;;;;;10.22;98.04;99704.69;5103209;28;20322;-58
2022/11/16 08:54:43;;;;;;;14.43;3.20;;;;;;;10.30;96.94;99700.16;5122621;27;20051;-59
2022/11/16 08:57:10;;;;;;;22.30;3.60;;;;;;;10.29;95.10;99702.97;5083463;27;20339;-59
2022/11/16 08:59:38;;;;;;;18.27;3.30;;;;;;;10.47;96.60;99706.16;5114443;27;20080;-58
2022/11/16 09:02:09;;;;;;;19.02;3.88;;;;;;;10.51;96.17;99711.94;5118302;27;20039;-58
2022/11/16 09:04:36;;;;;;;17.30;3.00;;;;;;;10.62;95.49;99716.00;5104163;28;20052;-58
2022/11/16 09:07:03;;;;;;;16.73;3.38;;;;;;;10.64;93.65;99713.97;5098043;27;20054;-58
2022/11/16 09:09:29;;;;;;;20.40;3.40;;;;;;;10.66;93.62;99723.41;5111169;28;20068;-58
2022/11/16 09:11:56;;;;;;;18.50;3.75;;;;;;;10.67;91.40;99732.19;5102265;28;20036;-58
2022/11/16 09:14:23;;;;;;;19.23;3.65;;;;;;;10.76;93.67;99720.50;5082785;28;20122;-59
2022/11/16 09:16:49;;;;;;;20.98;4.22;;;;;;;10.74;90.91;99725.16;5104225;28;20056;-58
2022/11/16 09:19:17;;;;;;;16.98;3.75;;;;;;;10.74;91.13;99715.38;5106330;28;20039;-58
2022/11/16 09:21:45;;;;;;;18.90;4.60;;;;;;;10.90;91.55;99726.84;5093486;28;20054;-58
2022/11/16 09:24:12;;;;;;;21.83;4.50;;;;;;;10.97;88.32;99726.94;5096964;28;20070;-58
2022/11/16 09:26:38;;;;;;;19.25;5.03;;;;;;;11.10;88.85;99721.84;5106460;28;20044;-58
2022/11/16 09:29:06;;;;;;;21.63;4.30;;;;;;;11.29;85.28;99717.81;5093089;28;20041;-58
2022/11/16 09:31:33;;;;;;;20.80;4.18;;;;;;;11.30;86.30;99717.63;5103078;28;20039;-58
2022/11/16 09:34:01;;;;;;;15.07;3.75;;;;;;;11.17;83.00;99719.25;5107599;28;20150;-58
2022/11/16 09:36:29;;;;;;;20.75;4.00;;;;;;;11.04;85.39;99725.19;5098171;28;20059;-58
2022/11/16 09:38:57;;;;;;;12.65;3.28;;;;;;;10.96;82.46;99726.13;5069755;28;20115;-59
2022/11/16 09:42:12;;;;;;;14.48;3.55;;;;;;;11.15;86.74;99727.41;5088968;28;20040;-59
2022/11/16 09:44:48;;;;;;;14.75;3.28;;;;;;;11.37;82.49;99736.31;5077871;28;20104;-58
2022/11/16 09:47:20;;;;;;;22.77;3.60;;;;;;;11.57;81.89;99733.06;5091183;28;20047;-58
2022/11/16 09:49:52;;;;;;;14.68;3.42;;;;;;;11.67;81.45;99731.78;5099639;28;20120;-58
2022/11/16 09:52:43;;;;;;;18.30;3.55;;;;;;;11.89;83.30;99727.31;5079903;28;20172;-58
2022/11/16 09:55:32;;;;;;;10.63;3.08;;;;;;;12.07;80.52;99736.75;5092750;28;20124;-58
2022/11/16 09:58:03;;;;;;;18.65;3.97;;;;;;;12.15;81.18;99735.81;5074880;28;20053;-58
2022/11/16 10:00:31;;;;;;;15.90;4.32;;;;;;;12.07;80.23;99728.78;5098179;28;20085;-58
2022/11/16 10:03:05;;;;;;;16.25;3.83;;;;;;;11.89;80.05;99729.97;5099839;28;20035;-58
2022/11/16 10:05:42;;;;;;;16.50;4.03;;;;;;;11.82;79.92;99729.09;5089048;28;20079;-57
2022/11/16 10:08:18;;;;;;;20.40;4.07;;;;;;;11.68;81.15;99725.47;5064739;28;20049;-57
2022/11/16 10:10:59;;;;;;;27.05;4.72;;;;;;;11.67;77.96;99728.31;5099482;28;20044;-57
2022/11/16 10:13:53;;;;;;;16.45;4.85;;;;;;;11.77;81.97;99733.31;5089959;28;20126;-57
2022/11/16 10:16:30;;;;;;;19.15;4.43;;;;;;;11.82;79.86;99726.44;5062845;28;20039;-57
2022/11/16 10:22:20;;;;;;;14.73;2.97;;;;;;;11.76;78.43;99724.53;5039644;28;20410;-57
2022/11/16 10:25:15;;;;;;;14.75;3.08;;;;;;;11.82;80.74;99722.94;5049411;28;20569;-57
2022/11/16 10:27:58;;;;;;;21.55;3.28;;;;;;;11.75;79.30;99716.75;5034547;28;20044;-58
2022/11/16 10:30:26;;;;;;;19.42;3.72;;;;;;;11.70;78.66;99723.44;5055252;28;20048;-57
2022/11/16 10:33:01;;;;;;;18.38;3.85;;;;;;;11.70;78.06;99719.97;5051368;28;20044;-57
2022/11/16 10:35:53;;;;;;;17.60;3.92;;;;;;;11.81;79.54;99718.66;5035510;28;20043;-57
2022/11/16 10:38:27;;;;;;;17.35;3.25;;;;;;;11.99;79.54;99712.94;5054615;28;20107;-57
2022/11/16 10:41:02;;;;;;;9.50;3.00;;;;;;;12.34;78.34;99719.25;5050542;28;20728;-57
2022/11/16 10:43:31;;;;;;;17.45;3.53;;;;;;;13.33;73.51;99713.00;5019547;28;20461;-57
2022/11/16 10:46:11;;;;;;;14.70;3.37;;;;;;;15.64;64.18;99711.72;5050658;28;20775;-58
2022/11/16 10:49:10;;;;;;;16.48;3.67;;;;;;;18.58;53.15;99720.38;5054411;28;20833;-58
2022/11/16 10:51:37;;;;;;;21.23;4.20;;;;;;;20.40;46.17;99710.44;5044383;28;20048;-60
2022/11/16 10:54:19;;;;;;;17.60;2.95;;;;;;;20.36;44.47;99709.28;5069966;28;20049;-59
2022/11/16 10:56:50;;;;;;;15.85;3.10;;;;;;;21.29;42.31;99715.81;5037738;28;20395;-58
2022/11/16 10:59:18;;;;;;;12.02;2.75;;;;;;;22.25;39.91;99708.28;5056766;28;20052;-58
2022/11/16 11:01:52;;;;;;;10.38;2.42;;;;;;;22.71;39.59;99708.69;5056553;28;20049;-58
2022/11/16 11:04:24;;;;;;;15.60;2.78;;;;;;;23.77;38.14;99714.09;5049486;28;20037;-58
2022/11/16 11:06:53;;;;;;;20.15;2.90;;;;;;;22.93;37.92;99710.44;5038695;28;20063;-57
2022/11/16 11:09:42;;;;;;;13.48;2.63;;;;;;;21.60;39.26;99713.53;5069544;28;20056;-60
2022/11/16 11:12:48;;;;;;;12.48;2.80;;;;;;;20.93;43.13;99703.72;5064216;28;20391;-58
2022/11/16 11:17:49;;;;;;;25.13;3.40;;;;;;;21.71;41.21;99692.88;5081836;27;20409;-58
2022/11/16 11:20:21;;;;;;;11.82;2.78;;;;;;;22.74;38.80;99691.09;5086369;28;20048;-58
2022/11/16 11:22:54;;;;;;;12.60;2.60;;;;;;;23.73;38.28;99689.44;5068111;28;20040;-58
2022/11/16 11:25:25;;;;;;;12.60;2.80;;;;;;;23.75;36.88;99690.00;5085204;28;20136;-58
2022/11/16 11:28:04;;;;;;;19.90;2.83;;;;;;;24.63;36.47;99680.13;5063725;28;20040;-58
2022/11/16 11:30:33;;;;;;;14.88;2.45;;;;;;;23.50;35.90;99689.91;5080007;28;20048;-58
2022/11/16 11:33:07;;;;;;;12.98;2.83;;;;;;;24.54;36.06;99673.63;5110104;27;20041;-49
2022/11/16 11:35:35;;;;;;;14.63;2.60;;;;;;;23.66;35.62;99682.66;5069417;28;20094;-52
2022/11/16 11:38:02;;;;;;;14.25;2.70;;;;;;;22.98;36.52;99673.44;5073445;28;20101;-54
2022/11/16 11:40:33;;;;;;;12.13;2.75;;;;;;;23.32;37.22;99666.84;5078308;28;20086;-52
2022/11/16 11:43:02;;;;;;;14.02;3.08;;;;;;;23.80;36.75;99658.66;5067474;28;20028;-53
2022/11/16 11:45:44;;;;;;;19.13;3.80;;;;;;;23.68;36.83;99659.66;5080283;28;20770;-56
2022/11/16 11:48:30;;;;;;;19.25;3.83;;;;;;;21.11;39.68;99658.69;5068037;28;20117;-49
2022/11/16 11:51:11;;;;;;;16.58;2.78;;;;;;;20.93;41.16;99657.09;5083819;28;20111;-62
2022/11/16 11:53:54;;;;;;;16.88;2.85;;;;;;;19.52;46.93;99638.88;5075591;28;20047;-62
2022/11/16 11:56:21;;;;;;;15.55;2.63;;;;;;;17.91;48.58;99642.75;5069944;28;20064;-63
2022/11/16 11:58:48;;;;;;;26.30;3.40;;;;;;;17.40;50.92;99633.31;5081361;28;20044;-62
2022/11/16 12:01:36;;;;;;;17.50;2.70;;;;;;;16.86;52.73;99641.13;5070329;28;20044;-62
2022/11/16 12:04:35;;;;;;;14.70;2.45;;;;;;;16.57;53.87;99637.25;5081556;28;20531;-60
2022/11/16 12:07:36;;;;;;;16.02;2.50;;;;;;;15.87;56.89;99638.22;5057763;28;20386;-62
2022/11/16 12:10:17;;;;;;;15.90;2.47;;;;;;;15.67;58.99;99628.44;5091429;28;20036;-62
2022/11/16 12:12:58;;;;;;;14.50;2.30;;;;;;;15.73;59.29;99622.25;5079028;28;20370;-62
2022/11/16 12:21:21;;;;;;;12.07;2.10;;;;;;;16.25;58.24;99613.25;5117592;27;20365;-61
2022/11/16 12:24:21;;;;;;;16.27;2.72;;;;;;;16.81;56.86;99609.63;5109596;28;20051;-62
2022/11/16 12:32:32;;;;;;;13.05;2.47;;;;;;;16.49;58.11;99600.91;5089565;27;20728;-61
2022/11/16 12:35:39;;;;;;;14.18;2.20;;;;;;;16.11;56.81;99599.97;5089380;28;20515;-59
2022/11/16 12:38:46;;;;;;;12.60;2.53;;;;;;;15.18;59.51;99589.00;5075280;28;20101;-61